Time;durP1;ratioP1;P1;durP2;ratioP2;P2;SDS_P1;SDS_P2;PMS_P1;PMS_P2;Temp;Humidity;BMP_temperature;BMP_pressure;BME280_temperature;BME280_humidity;BME280_pressure;Samples;Min_cycle;Max_cycle;Signal;HPM_P1;HPM_P2
2022/12/04 00:01:03;;;;;;;34.65;29.08;;;1.30;99.90;;;;;;5028391;28;20034;-76
2022/12/04 00:03:29;;;;;;;40.28;31.13;;;1.30;99.90;;;;;;5042254;28;20035;-76
2022/12/04 00:06:12;;;;;;;49.22;32.95;;;1.30;99.90;;;;;;5048018;28;20545;-76
2022/12/04 00:08:42;;;;;;;45.38;33.45;;;1.30;99.90;;;;;;5046598;28;20044;-75
2022/12/04 00:11:10;;;;;;;45.13;31.92;;;1.30;99.90;;;;;;5028990;28;20044;-76
2022/12/04 00:13:36;;;;;;;47.13;34.65;;;1.30;99.90;;;;;;5028195;28;20026;-76
2022/12/04 00:16:07;;;;;;;40.92;31.58;;;1.30;99.90;;;;;;5026763;28;20125;-76
2022/12/04 00:18:34;;;;;;;46.45;32.28;;;1.30;99.90;;;;;;5026669;28;20042;-76
2022/12/04 00:21:04;;;;;;;45.63;34.00;;;1.30;99.90;;;;;;5027857;28;20045;-76
2022/12/04 00:23:30;;;;;;;36.20;31.23;;;1.30;99.90;;;;;;5027886;28;20090;-75
2022/12/04 00:26:05;;;;;;;56.95;35.33;;;1.30;99.90;;;;;;5027490;28;20093;-76
2022/12/04 00:28:32;;;;;;;45.03;33.38;;;1.30;99.90;;;;;;5039684;28;20064;-76
2022/12/04 00:30:58;;;;;;;45.70;32.58;;;1.30;99.90;;;;;;5035223;28;20064;-76
2022/12/04 00:33:24;;;;;;;57.50;33.63;;;1.30;99.90;;;;;;5009847;28;20125;-76
2022/12/04 00:36:01;;;;;;;41.85;33.15;;;1.20;99.90;;;;;;5036945;28;20032;-76
2022/12/04 00:38:28;;;;;;;45.58;32.47;;;1.20;99.90;;;;;;5052504;28;20041;-76
2022/12/04 00:40:53;;;;;;;46.40;32.40;;;1.20;99.90;;;;;;5043137;28;20049;-76
2022/12/04 00:43:20;;;;;;;56.92;36.97;;;1.20;99.90;;;;;;5047265;28;20034;-76
2022/12/04 00:45:47;;;;;;;46.63;33.70;;;1.20;99.90;;;;;;5046490;28;20029;-76
2022/12/04 00:48:12;;;;;;;44.22;30.88;;;1.20;99.90;;;;;;5046897;28;20086;-76
2022/12/04 00:50:39;;;;;;;39.05;30.77;;;1.20;99.90;;;;;;5029277;28;20136;-76
2022/12/04 00:53:04;;;;;;;35.50;31.25;;;1.30;99.90;;;;;;5047268;28;20029;-76
2022/12/04 00:55:30;;;;;;;44.03;32.08;;;1.30;99.90;;;;;;5029206;28;20379;-76
2022/12/04 00:57:57;;;;;;;40.88;35.42;;;1.30;99.90;;;;;;5046988;28;20038;-76
2022/12/04 01:00:22;;;;;;;48.08;33.83;;;1.20;99.90;;;;;;5047224;28;20038;-75
2022/12/04 01:02:48;;;;;;;47.42;34.40;;;1.30;99.90;;;;;;5029304;28;20539;-76
2022/12/04 01:05:14;;;;;;;51.78;35.55;;;1.20;99.90;;;;;;5026982;28;20058;-75
2022/12/04 01:07:40;;;;;;;45.38;34.05;;;1.30;99.90;;;;;;5025727;28;20045;-76
2022/12/04 01:10:10;;;;;;;47.70;34.90;;;1.30;99.90;;;;;;5025711;28;20030;-76
2022/12/04 01:12:36;;;;;;;44.35;36.53;;;1.30;99.90;;;;;;5026843;28;20034;-76
2022/12/04 01:15:03;;;;;;;47.83;34.10;;;1.30;99.90;;;;;;5025850;28;20029;-76
2022/12/04 01:17:28;;;;;;;49.55;35.38;;;1.30;99.90;;;;;;5040958;28;20022;-75
2022/12/04 01:19:54;;;;;;;51.90;34.78;;;1.20;99.90;;;;;;5045166;28;20048;-76
2022/12/04 01:22:20;;;;;;;43.70;32.60;;;1.30;99.90;;;;;;5046730;28;20025;-76
2022/12/04 01:24:46;;;;;;;44.67;35.65;;;1.20;99.90;;;;;;5045290;28;20064;-75
2022/12/04 01:27:11;;;;;;;38.45;32.75;;;1.30;99.90;;;;;;5028780;28;20097;-76
2022/12/04 01:29:37;;;;;;;52.92;35.42;;;1.20;99.90;;;;;;5046421;28;20044;-76
2022/12/04 01:32:03;;;;;;;45.25;34.22;;;1.30;99.90;;;;;;5032014;28;20057;-76
2022/12/04 01:34:29;;;;;;;43.80;33.47;;;1.30;99.90;;;;;;5026598;28;20203;-76
2022/12/04 01:36:55;;;;;;;43.15;33.00;;;1.30;99.90;;;;;;5025257;28;20041;-76
2022/12/04 01:39:21;;;;;;;42.72;35.63;;;1.30;99.90;;;;;;5024605;28;20048;-76
2022/12/04 01:41:47;;;;;;;44.40;33.20;;;1.30;99.90;;;;;;5026401;28;20093;-76
2022/12/04 01:44:17;;;;;;;47.10;32.35;;;1.30;99.90;;;;;;5040641;28;20037;-76
2022/12/04 01:46:45;;;;;;;51.90;34.20;;;1.40;99.90;;;;;;5043995;28;20111;-76
2022/12/04 01:49:15;;;;;;;60.08;35.13;;;1.30;99.90;;;;;;5045738;28;20360;-76
2022/12/04 01:51:47;;;;;;;47.75;33.47;;;1.30;99.90;;;;;;5046326;28;20026;-76
2022/12/04 01:54:21;;;;;;;47.47;36.00;;;1.30;99.90;;;;;;5044806;28;20022;-76
2022/12/04 01:56:53;;;;;;;53.45;35.28;;;1.30;99.90;;;;;;5045942;28;20076;-76
2022/12/04 01:59:22;;;;;;;48.10;35.75;;;1.30;99.90;;;;;;5046022;28;20030;-76
2022/12/04 02:02:09;;;;;;;49.50;35.13;;;1.30;99.90;;;;;;5044792;28;20037;-76
2022/12/04 02:04:36;;;;;;;52.58;33.97;;;1.30;99.90;;;;;;5038843;28;20049;-76
2022/12/04 02:07:02;;;;;;;49.03;35.30;;;1.30;99.90;;;;;;5024665;28;20026;-76
2022/12/04 02:09:29;;;;;;;52.63;35.60;;;1.30;99.90;;;;;;5024634;28;20042;-76
2022/12/04 02:12:05;;;;;;;45.42;33.45;;;1.30;99.90;;;;;;5026290;28;20523;-75
2022/12/04 02:14:30;;;;;;;51.97;34.63;;;1.20;99.90;;;;;;5026191;28;20034;-76
2022/12/04 02:17:09;;;;;;;43.00;33.85;;;1.30;99.90;;;;;;5024765;28;20030;-76
2022/12/04 02:20:04;;;;;;;48.10;36.20;;;1.30;99.90;;;;;;5024606;28;20034;-76
2022/12/04 02:22:51;;;;;;;43.92;34.30;;;1.20;99.90;;;;;;5040107;28;20025;-75
2022/12/04 02:25:45;;;;;;;52.05;35.35;;;1.20;99.90;;;;;;5044332;28;20042;-76
2022/12/04 02:28:33;;;;;;;58.42;37.28;;;1.20;99.90;;;;;;5044429;28;20501;-76
2022/12/04 02:31:01;;;;;;;44.30;32.67;;;1.20;99.90;;;;;;5044391;28;20049;-76
2022/12/04 02:33:46;;;;;;;47.35;32.53;;;1.20;99.90;;;;;;5044482;28;20541;-76
2022/12/04 02:36:19;;;;;;;46.85;33.67;;;1.20;99.90;;;;;;5042533;28;20457;-75
2022/12/04 02:39:10;;;;;;;46.90;37.33;;;1.20;99.90;;;;;;5045554;28;20033;-76
2022/12/04 02:41:45;;;;;;;48.90;34.88;;;1.20;99.90;;;;;;5044954;28;20603;-76
2022/12/04 02:44:24;;;;;;;51.67;32.90;;;1.20;99.90;;;;;;5045288;28;20159;-76
2022/12/04 02:46:55;;;;;;;43.97;29.17;;;1.20;99.90;;;;;;5044504;28;20034;-76
2022/12/04 02:49:27;;;;;;;59.20;35.50;;;1.20;99.90;;;;;;5046351;28;20303;-76
2022/12/04 02:51:56;;;;;;;46.67;34.58;;;1.20;99.90;;;;;;5048660;28;20060;-76
2022/12/04 02:54:34;;;;;;;55.00;38.25;;;1.20;99.90;;;;;;5049390;28;20029;-76
2022/12/04 02:57:04;;;;;;;50.30;33.10;;;1.20;99.90;;;;;;5048149;28;20037;-76
2022/12/04 02:59:36;;;;;;;43.95;35.33;;;1.20;99.90;;;;;;5049440;28;20025;-76
2022/12/04 03:02:11;;;;;;;50.92;34.88;;;1.20;99.90;;;;;;5047403;28;20059;-76
2022/12/04 03:04:38;;;;;;;55.33;34.42;;;1.10;99.90;;;;;;5049009;28;20052;-76
2022/12/04 03:07:16;;;;;;;43.58;38.13;;;1.20;99.90;;;;;;5048756;28;20026;-76
2022/12/04 03:09:49;;;;;;;49.47;36.08;;;1.20;99.90;;;;;;5049207;28;20026;-76
2022/12/04 03:12:33;;;;;;;50.05;35.30;;;1.20;99.90;;;;;;5047958;28;20037;-76
2022/12/04 03:15:08;;;;;;;52.40;34.60;;;1.20;99.90;;;;;;5049276;28;20026;-76
2022/12/04 03:17:45;;;;;;;47.80;35.53;;;1.20;99.90;;;;;;5048913;28;20109;-76
2022/12/04 03:20:13;;;;;;;49.10;36.55;;;1.20;99.90;;;;;;5046959;28;20095;-76
2022/12/04 03:22:42;;;;;;;47.80;36.50;;;1.20;99.90;;;;;;5028991;28;20113;-76
2022/12/04 03:25:10;;;;;;;52.83;37.22;;;1.10;99.90;;;;;;5029149;28;20040;-76
2022/12/04 03:28:01;;;;;;;47.15;35.08;;;1.10;99.90;;;;;;5028897;28;20085;-75
2022/12/04 03:30:34;;;;;;;42.25;33.90;;;1.10;99.90;;;;;;5027706;28;20077;-76
2022/12/04 03:33:15;;;;;;;56.95;39.30;;;1.10;99.90;;;;;;5027727;28;20036;-75
2022/12/04 03:35:44;;;;;;;53.38;36.95;;;1.10;99.90;;;;;;5035157;28;20040;-76
2022/12/04 03:38:21;;;;;;;46.72;37.53;;;0.70;99.90;;;;;;5047215;28;20033;-76
2022/12/04 03:40:56;;;;;;;47.13;35.83;;;1.10;99.90;;;;;;5047342;28;20037;-76
2022/12/04 03:43:49;;;;;;;53.03;32.53;;;1.10;99.90;;;;;;5048625;28;20108;-76
2022/12/04 03:46:27;;;;;;;60.75;36.85;;;1.10;99.90;;;;;;5037761;28;20045;-76
2022/12/04 03:49:05;;;;;;;53.10;39.90;;;1.10;99.90;;;;;;5047294;28;20042;-76
2022/12/04 03:51:37;;;;;;;43.70;33.97;;;1.10;99.90;;;;;;5048434;28;20032;-76
2022/12/04 03:54:20;;;;;;;43.25;35.53;;;1.10;99.90;;;;;;5047633;28;20045;-76
2022/12/04 03:56:56;;;;;;;54.53;38.28;;;1.00;99.90;;;;;;5048082;28;20059;-75
2022/12/04 03:59:36;;;;;;;55.03;37.42;;;1.00;99.90;;;;;;5046961;28;20107;-76
2022/12/04 04:02:03;;;;;;;;;;;1.00;99.90;;;;;;5047449;28;20040;-76
2022/12/04 04:04:36;;;;;;;55.53;37.03;;;1.00;99.90;;;;;;5046897;28;19917;-75
2022/12/04 04:07:12;;;;;;;50.42;38.13;;;1.00;99.90;;;;;;5047945;28;20029;-76
2022/12/04 04:09:45;;;;;;;49.90;35.70;;;1.10;99.90;;;;;;5046610;28;20089;-75
2022/12/04 04:12:19;;;;;;;50.90;38.78;;;1.00;99.90;;;;;;5028608;28;20026;-76
2022/12/04 04:25:57;;;;;;;47.47;36.30;;;1.10;99.90;;;;;;5037048;28;20033;-76
2022/12/04 04:28:33;;;;;;;43.47;35.38;;;1.00;99.90;;;;;;5047756;28;20029;-76
2022/12/04 04:31:13;;;;;;;50.92;38.67;;;1.10;99.90;;;;;;5029860;28;20068;-75
2022/12/04 04:34:03;;;;;;;59.47;39.80;;;1.00;99.90;;;;;;5027830;28;20093;-76
2022/12/04 04:36:50;;;;;;;49.22;35.35;;;1.00;99.90;;;;;;5027826;28;20034;-76
2022/12/04 04:39:37;;;;;;;50.90;37.92;;;1.10;99.90;;;;;;5027385;28;20029;-76
2022/12/04 04:42:08;;;;;;;53.42;39.10;;;1.10;99.90;;;;;;5027671;28;20040;-76
2022/12/04 04:45:00;;;;;;;55.03;38.67;;;1.10;99.90;;;;;;5039678;28;20025;-76
2022/12/04 04:47:57;;;;;;;57.03;40.25;;;1.10;99.90;;;;;;5046324;28;20029;-76
2022/12/04 04:50:23;;;;;;;49.72;36.58;;;1.10;99.90;;;;;;5047234;28;20034;-75
2022/12/04 04:52:53;;;;;;;62.20;39.65;;;1.00;99.90;;;;;;5045966;28;20117;-76
2022/12/04 04:55:20;;;;;;;45.80;34.38;;;1.10;99.90;;;;;;5045823;28;20028;-76
2022/12/04 04:57:47;;;;;;;61.58;41.17;;;1.00;99.90;;;;;;5045478;28;20029;-76
2022/12/04 05:00:19;;;;;;;56.65;38.42;;;1.00;99.90;;;;;;5025944;28;20036;-76
2022/12/04 05:02:47;;;;;;;50.17;37.30;;;1.10;99.90;;;;;;5027235;28;20036;-76
2022/12/04 05:05:13;;;;;;;51.15;37.95;;;1.10;99.90;;;;;;5025678;28;20060;-76
2022/12/04 05:07:39;;;;;;;49.10;36.33;;;1.10;99.90;;;;;;5027099;28;20053;-76
2022/12/04 05:10:06;;;;;;;48.15;36.13;;;1.10;99.90;;;;;;5027117;28;20030;-76
2022/12/04 05:12:31;;;;;;;53.17;38.90;;;1.10;99.90;;;;;;5026287;28;20498;-76
2022/12/04 05:14:58;;;;;;;45.03;38.08;;;1.10;99.90;;;;;;5045946;28;20030;-76
2022/12/04 05:17:24;;;;;;;44.85;34.35;;;1.10;99.90;;;;;;5046523;28;20060;-76
2022/12/04 05:19:52;;;;;;;47.85;37.00;;;1.10;99.90;;;;;;5045647;28;20482;-76
2022/12/04 05:22:27;;;;;;;59.38;37.33;;;1.10;99.90;;;;;;5046470;28;20034;-76
2022/12/04 05:24:54;;;;;;;48.08;33.72;;;1.10;99.90;;;;;;5046608;28;20029;-76
2022/12/04 05:27:21;;;;;;;54.05;38.83;;;1.10;99.90;;;;;;5046392;28;20037;-76
2022/12/04 05:29:47;;;;;;;47.20;39.20;;;1.10;99.90;;;;;;5042349;28;20074;-76
2022/12/04 05:32:13;;;;;;;51.47;38.83;;;1.00;99.90;;;;;;5025304;28;20045;-76
2022/12/04 05:34:39;;;;;;;61.97;39.53;;;1.10;99.90;;;;;;5026574;28;20085;-76
2022/12/04 05:37:05;;;;;;;49.80;37.75;;;1.10;99.90;;;;;;5025654;28;20094;-75
2022/12/04 05:39:31;;;;;;;47.97;37.95;;;1.10;99.90;;;;;;5025057;28;20038;-76
2022/12/04 05:41:56;;;;;;;50.45;40.83;;;1.10;99.90;;;;;;5025358;28;20046;-76
2022/12/04 05:44:22;;;;;;;47.20;36.10;;;1.10;99.90;;;;;;5029338;28;20030;-76
2022/12/04 05:46:48;;;;;;;53.30;40.03;;;1.10;99.90;;;;;;5044412;28;20036;-76
2022/12/04 05:49:14;;;;;;;53.92;39.58;;;1.10;99.90;;;;;;5026181;28;20148;-76
2022/12/04 05:51:39;;;;;;;50.42;39.95;;;1.10;99.90;;;;;;5045738;28;20037;-76
2022/12/04 05:54:05;;;;;;;52.10;37.80;;;1.00;99.90;;;;;;5046075;28;20049;-76
2022/12/04 05:56:31;;;;;;;55.28;39.10;;;1.10;99.90;;;;;;5046160;28;20065;-75
2022/12/04 05:58:57;;;;;;;55.45;41.17;;;1.00;99.90;;;;;;5046070;28;20087;-76
2022/12/04 06:01:23;;;;;;;43.67;36.05;;;1.00;99.90;;;;;;5045782;28;20061;-76
2022/12/04 06:03:49;;;;;;;61.40;41.00;;;1.00;99.90;;;;;;5044734;28;20118;-76
2022/12/04 06:06:18;;;;;;;48.58;42.25;;;1.00;99.90;;;;;;5042833;28;20036;-75
2022/12/04 06:08:44;;;;;;;51.40;34.30;;;1.10;99.90;;;;;;5045550;28;20029;-76
2022/12/04 06:11:12;;;;;;;53.83;40.15;;;1.10;99.90;;;;;;5044650;28;20067;-75
2022/12/04 06:13:40;;;;;;;60.00;41.08;;;1.10;99.90;;;;;;5044410;28;20034;-75
2022/12/04 06:16:11;;;;;;;50.60;41.65;;;1.10;99.90;;;;;;5044520;28;20040;-76
2022/12/04 06:18:37;;;;;;;53.70;40.28;;;1.10;99.90;;;;;;5045649;28;20026;-76
2022/12/04 06:21:03;;;;;;;49.40;36.88;;;1.00;99.90;;;;;;5011848;28;20101;-76
2022/12/04 06:23:28;;;;;;;52.85;39.67;;;1.00;99.90;;;;;;5031655;28;20042;-76
2022/12/04 06:25:54;;;;;;;61.97;43.92;;;1.00;99.90;;;;;;5024265;28;20040;-76
2022/12/04 06:28:20;;;;;;;59.35;40.95;;;1.00;99.90;;;;;;5024575;28;20030;-76
2022/12/04 06:30:46;;;;;;;56.63;40.45;;;1.00;99.90;;;;;;5025723;28;20034;-76
2022/12/04 06:33:11;;;;;;;55.35;40.65;;;1.00;99.90;;;;;;5025941;28;20056;-76
2022/12/04 06:35:38;;;;;;;54.53;42.22;;;1.00;99.90;;;;;;5025895;28;20030;-76
2022/12/04 06:38:04;;;;;;;57.35;42.72;;;1.00;99.90;;;;;;5025587;28;20168;-76
2022/12/04 06:40:29;;;;;;;61.60;44.00;;;1.00;99.90;;;;;;5039476;28;20364;-76
2022/12/04 06:42:56;;;;;;;55.00;41.08;;;1.00;99.90;;;;;;5043835;28;20048;-76
2022/12/04 06:45:22;;;;;;;62.30;42.08;;;1.00;99.90;;;;;;5045494;28;20117;-75
2022/12/04 06:47:48;;;;;;;51.70;40.00;;;1.00;99.90;;;;;;5045569;28;20029;-76
2022/12/04 06:50:14;;;;;;;61.53;42.58;;;1.00;99.90;;;;;;5045380;28;20129;-75
2022/12/04 06:52:39;;;;;;;58.42;40.28;;;1.00;99.90;;;;;;5027921;28;20053;-75
2022/12/04 06:55:05;;;;;;;55.00;40.53;;;1.00;99.90;;;;;;5035317;28;20022;-76
2022/12/04 06:57:32;;;;;;;55.50;40.28;;;1.00;99.90;;;;;;5025692;28;20041;-76
2022/12/04 06:59:58;;;;;;;57.10;38.58;;;1.00;99.90;;;;;;5025545;28;20029;-76
2022/12/04 07:02:23;;;;;;;51.58;36.83;;;1.00;99.90;;;;;;5025864;28;20026;-76
2022/12/04 07:04:54;;;;;;;65.63;39.47;;;1.00;99.90;;;;;;5024074;28;20064;-76
2022/12/04 07:07:20;;;;;;;61.03;40.58;;;1.00;99.90;;;;;;5007323;28;20065;-76
2022/12/04 07:09:46;;;;;;;48.40;37.30;;;1.00;99.90;;;;;;5032831;28;20038;-76
2022/12/04 07:12:12;;;;;;;59.97;40.63;;;1.00;99.90;;;;;;5028283;28;20122;-76
2022/12/04 07:14:38;;;;;;;55.22;40.00;;;1.00;99.90;;;;;;5026334;28;20060;-76
2022/12/04 07:17:04;;;;;;;55.05;39.22;;;1.00;99.90;;;;;;5006393;28;20501;-76
2022/12/04 07:19:30;;;;;;;50.97;39.15;;;1.00;99.90;;;;;;5026464;28;20034;-76
2022/12/04 07:21:56;;;;;;;53.60;41.08;;;1.00;99.90;;;;;;5013059;28;20045;-76
2022/12/04 07:24:21;;;;;;;51.40;39.70;;;1.00;99.90;;;;;;5023868;28;20042;-76
2022/12/04 07:26:47;;;;;;;48.20;38.28;;;0.90;99.90;;;;;;5014603;28;20049;-75
2022/12/04 07:29:13;;;;;;;58.33;41.58;;;0.90;99.90;;;;;;5043075;28;20041;-76
2022/12/04 07:31:39;;;;;;;56.70;39.25;;;1.00;99.90;;;;;;5027107;28;20030;-76
2022/12/04 07:34:05;;;;;;;53.95;37.40;;;1.00;99.90;;;;;;5051971;28;20114;-76
2022/12/04 07:36:31;;;;;;;62.60;38.00;;;0.90;99.90;;;;;;5044673;28;20051;-76
2022/12/04 07:38:57;;;;;;;53.92;39.45;;;1.00;99.90;;;;;;5030661;28;20060;-76
2022/12/04 07:41:23;;;;;;;48.40;34.83;;;1.00;99.90;;;;;;5037315;28;20033;-76
2022/12/04 07:43:49;;;;;;;49.33;34.88;;;1.00;99.90;;;;;;5043887;28;20030;-76
2022/12/04 07:46:18;;;;;;;55.58;38.33;;;1.00;99.90;;;;;;5032969;28;20132;-76
2022/12/04 07:48:45;;;;;;;39.97;34.17;;;1.00;99.90;;;;;;5048912;28;20029;-76
2022/12/04 07:51:13;;;;;;;56.13;38.10;;;1.00;99.90;;;;;;5048358;28;20044;-76
2022/12/04 07:53:40;;;;;;;56.42;37.10;;;1.10;99.90;;;;;;5043496;28;20030;-76
2022/12/04 07:56:06;;;;;;;48.42;36.58;;;1.10;99.90;;;;;;5036983;28;20018;-76
2022/12/04 07:58:33;;;;;;;46.72;34.58;;;1.10;99.90;;;;;;5044450;28;20024;-76
2022/12/04 08:01:16;;;;;;;46.50;35.92;;;1.10;99.90;;;;;;5033697;28;20032;-76
2022/12/04 08:03:43;;;;;;;43.30;34.45;;;1.10;99.90;;;;;;5040544;28;20042;-75
2022/12/04 08:06:09;;;;;;;49.47;35.05;;;1.10;99.90;;;;;;5030285;28;20040;-75
2022/12/04 08:08:36;;;;;;;48.15;37.45;;;1.10;99.90;;;;;;5042680;28;20025;-76
2022/12/04 08:11:07;;;;;;;46.35;33.95;;;1.40;99.90;;;;;;5020198;28;20037;-76
2022/12/04 08:13:33;;;;;;;46.72;34.28;;;1.10;99.90;;;;;;5038636;28;20037;-76
2022/12/04 08:16:03;;;;;;;51.40;35.53;;;1.10;99.90;;;;;;5028037;28;20033;-75
2022/12/04 08:18:28;;;;;;;;;;;1.10;99.90;;;;;;5038019;28;20038;-75
2022/12/04 08:21:09;;;;;;;42.95;32.28;;;1.20;99.90;;;;;;5035772;28;19944;-75
2022/12/04 08:23:35;;;;;;;50.45;30.73;;;1.20;99.90;;;;;;5026239;28;20396;-75
2022/12/04 08:26:02;;;;;;;43.65;33.00;;;1.20;99.90;;;;;;5031908;28;20026;-75
2022/12/04 08:28:29;;;;;;;40.63;32.63;;;1.20;99.90;;;;;;5046464;28;20037;-76
2022/12/04 08:30:54;;;;;;;37.65;30.63;;;1.20;99.90;;;;;;5029018;28;20037;-75
2022/12/04 08:33:20;;;;;;;42.10;31.85;;;1.30;99.90;;;;;;5045776;28;20444;-75
2022/12/04 08:35:47;;;;;;;42.83;32.35;;;1.30;99.90;;;;;;5037812;28;20025;-75
2022/12/04 08:38:13;;;;;;;47.90;31.52;;;1.50;99.90;;;;;;5046424;28;20032;-76
2022/12/04 08:40:38;;;;;;;36.33;29.00;;;1.30;99.90;;;;;;5047097;28;20120;-76
2022/12/04 08:43:04;;;;;;;42.22;30.90;;;1.40;99.90;;;;;;5029403;28;20541;-75
2022/12/04 08:45:31;;;;;;;45.08;30.85;;;1.40;99.90;;;;;;5047090;28;20032;-75
2022/12/04 08:47:57;;;;;;;43.80;32.47;;;1.40;99.90;;;;;;5045555;28;20514;-76
2022/12/04 08:50:23;;;;;;;35.67;27.33;;;1.50;99.90;;;;;;5024633;28;20034;-76
2022/12/04 08:52:49;;;;;;;40.58;29.80;;;1.50;99.90;;;;;;5037014;28;20498;-76
2022/12/04 08:55:14;;;;;;;37.53;30.13;;;1.60;99.90;;;;;;5045593;28;20037;-75
2022/12/04 08:57:41;;;;;;;37.47;29.27;;;1.60;99.90;;;;;;5042731;28;20699;-76
2022/12/04 09:00:07;;;;;;;39.67;31.38;;;1.70;99.90;;;;;;5041376;28;20041;-76
2022/12/04 09:02:33;;;;;;;34.78;29.40;;;1.70;99.90;;;;;;5045859;28;20033;-76
2022/12/04 09:04:59;;;;;;;39.08;28.10;;;1.70;99.90;;;;;;5045554;28;20472;-76
2022/12/04 09:07:24;;;;;;;36.53;28.38;;;1.70;99.90;;;;;;5046954;28;20034;-76
2022/12/04 09:09:50;;;;;;;41.63;29.02;;;1.60;99.90;;;;;;5046751;28;20041;-76
2022/12/04 09:12:16;;;;;;;28.50;25.50;;;1.70;99.90;;;;;;5045634;28;20037;-76
2022/12/04 09:14:42;;;;;;;35.63;25.33;;;1.70;99.90;;;;;;5044834;28;20060;-76
2022/12/04 09:17:08;;;;;;;33.90;27.45;;;1.70;99.90;;;;;;5031409;28;20034;-76
2022/12/04 09:19:35;;;;;;;37.20;26.38;;;1.70;99.90;;;;;;5038159;28;20060;-76
2022/12/04 09:22:01;;;;;;;34.15;26.60;;;1.80;99.90;;;;;;5012908;28;20121;-76
2022/12/04 09:24:29;;;;;;;34.35;27.88;;;2.00;99.90;;;;;;5024777;28;20042;-76
2022/12/04 09:26:55;;;;;;;29.73;23.80;;;1.90;99.90;;;;;;5023651;28;20037;-76
2022/12/04 09:29:21;;;;;;;29.08;24.05;;;1.90;99.90;;;;;;5024690;28;20034;-76
2022/12/04 09:31:47;;;;;;;36.50;25.98;;;1.90;99.90;;;;;;5035384;28;20044;-76
2022/12/04 09:34:13;;;;;;;37.78;28.85;;;2.00;99.90;;;;;;5036683;28;20050;-76
2022/12/04 09:36:39;;;;;;;29.42;24.58;;;1.90;99.90;;;;;;5024898;28;20037;-75
2022/12/04 09:39:04;;;;;;;30.42;25.98;;;1.90;99.90;;;;;;5028525;28;20041;-75
2022/12/04 09:41:51;;;;;;;39.65;26.05;;;1.90;99.90;;;;;;5042670;28;20037;-75
2022/12/04 09:44:43;;;;;;;33.55;24.70;;;2.00;99.90;;;;;;5046226;28;20033;-75
2022/12/04 09:47:30;;;;;;;33.28;27.50;;;2.00;99.90;;;;;;5042663;28;20021;-75
2022/12/04 09:50:04;;;;;;;34.50;27.23;;;1.90;99.90;;;;;;5042547;28;20410;-74
2022/12/04 09:52:33;;;;;;;35.72;27.27;;;1.90;99.90;;;;;;5037052;28;20034;-75
2022/12/04 09:55:02;;;;;;;38.97;28.45;;;1.80;99.90;;;;;;5052041;28;20048;-75
2022/12/04 09:57:36;;;;;;;32.70;24.42;;;1.90;99.90;;;;;;5035760;28;20029;-75
2022/12/04 10:00:04;;;;;;;37.95;32.35;;;1.80;99.90;;;;;;5035726;28;20037;-75
2022/12/04 10:02:41;;;;;;;42.25;34.45;;;1.80;99.90;;;;;;5031406;28;20056;-75
2022/12/04 10:05:35;;;;;;;45.05;32.53;;;1.80;99.90;;;;;;5024727;28;20138;-75
2022/12/04 10:08:23;;;;;;;51.45;35.97;;;1.70;99.90;;;;;;5035578;28;20041;-76
2022/12/04 10:10:49;;;;;;;40.00;33.10;;;1.80;99.90;;;;;;5036404;28;20130;-75
2022/12/04 10:13:21;;;;;;;39.63;32.47;;;1.80;99.90;;;;;;5035117;28;20026;-75
2022/12/04 10:16:06;;;;;;;44.90;37.03;;;1.70;99.90;;;;;;5032245;28;20105;-75
2022/12/04 10:18:57;;;;;;;42.15;37.25;;;1.70;99.90;;;;;;5033515;28;20030;-75
2022/12/04 10:21:33;;;;;;;47.22;34.45;;;1.70;99.90;;;;;;5035481;28;20034;-75
2022/12/04 10:24:25;;;;;;;27.05;23.85;;;1.70;99.90;;;;;;5032952;28;20080;-75
2022/12/04 10:26:56;;;;;;;36.72;27.63;;;1.70;99.90;;;;;;5022227;28;20483;-75
2022/12/04 10:29:31;;;;;;;34.75;27.90;;;1.70;99.90;;;;;;5034074;28;20029;-75
2022/12/04 10:32:14;;;;;;;36.40;26.88;;;1.70;99.90;;;;;;5033384;28;20079;-74
2022/12/04 10:34:40;;;;;;;27.42;23.15;;;1.70;99.90;;;;;;5032991;28;20041;-75
2022/12/04 10:37:12;;;;;;;27.90;22.35;;;1.70;99.90;;;;;;5034585;28;20026;-75
2022/12/04 10:39:44;;;;;;;31.50;24.77;;;1.60;99.90;;;;;;5035111;28;20037;-74
2022/12/04 10:42:23;;;;;;;33.35;26.15;;;1.60;99.90;;;;;;5021973;28;20033;-76
2022/12/04 10:44:50;;;;;;;28.55;25.55;;;1.60;99.90;;;;;;5036215;28;20026;-75
2022/12/04 10:47:16;;;;;;;33.03;29.45;;;1.60;99.90;;;;;;5033230;28;20518;-75
2022/12/04 10:49:42;;;;;;;32.70;29.25;;;1.70;99.90;;;;;;5001698;28;20067;-75
2022/12/04 10:52:11;;;;;;;33.25;29.00;;;1.70;99.90;;;;;;5025130;28;20045;-76
2022/12/04 10:54:58;;;;;;;39.33;30.75;;;1.70;99.90;;;;;;5035167;28;20037;-75
2022/12/04 10:57:39;;;;;;;33.65;30.08;;;1.80;99.90;;;;;;5035461;28;20026;-75
2022/12/04 11:00:27;;;;;;;35.83;28.85;;;1.80;99.90;;;;;;5032706;28;20034;-75
2022/12/04 11:02:55;;;;;;;33.65;29.42;;;1.70;99.90;;;;;;5030691;28;20491;-75
2022/12/04 11:05:54;;;;;;;30.30;26.85;;;1.70;99.90;;;;;;5012784;28;20052;-74
2022/12/04 11:08:26;;;;;;;33.00;29.35;;;1.60;99.90;;;;;;5031001;28;20064;-75
2022/12/04 11:11:01;;;;;;;32.03;27.85;;;1.70;99.90;;;;;;5033784;28;20091;-75
2022/12/04 11:13:28;;;;;;;34.10;30.17;;;1.70;99.90;;;;;;5038722;28;20025;-74
2022/12/04 11:15:55;;;;;;;41.75;34.58;;;1.70;99.90;;;;;;5033796;28;20041;-75
2022/12/04 11:18:30;;;;;;;35.28;31.40;;;1.70;99.90;;;;;;5031767;28;20034;-76
2022/12/04 11:21:06;;;;;;;39.00;31.70;;;1.70;99.90;;;;;;5028733;28;20041;-74
2022/12/04 11:23:40;;;;;;;33.38;27.05;;;1.70;99.90;;;;;;5036211;28;20040;-74
2022/12/04 11:26:07;;;;;;;35.63;31.42;;;1.70;99.90;;;;;;5028940;28;20036;-75
2022/12/04 11:28:34;;;;;;;36.72;31.48;;;1.60;99.90;;;;;;5028686;28;20061;-74
2022/12/04 11:31:03;;;;;;;40.78;34.15;;;1.70;99.90;;;;;;5020305;28;20052;-75
2022/12/04 11:33:42;;;;;;;42.88;28.27;;;1.60;99.90;;;;;;5035570;28;20038;-75
2022/12/04 11:36:41;;;;;;;34.38;30.77;;;1.60;99.90;;;;;;5036797;28;20056;-75
2022/12/04 11:39:23;;;;;;;34.42;27.60;;;1.60;99.90;;;;;;5027384;28;20109;-75
2022/12/04 11:42:13;;;;;;;30.92;27.52;;;1.60;99.90;;;;;;5028517;28;20032;-75
2022/12/04 11:44:48;;;;;;;30.98;27.73;;;1.60;99.90;;;;;;5024305;28;20044;-75
2022/12/04 11:47:18;;;;;;;33.55;29.33;;;1.60;99.90;;;;;;5035260;28;20523;-75
2022/12/04 11:49:43;;;;;;;32.67;29.20;;;1.70;99.90;;;;;;5036959;28;20025;-74
2022/12/04 11:52:29;;;;;;;30.65;27.20;;;1.60;99.90;;;;;;5024284;28;20176;-75
2022/12/04 11:55:20;;;;;;;28.08;24.88;;;1.70;99.90;;;;;;5020901;28;20022;-76
2022/12/04 11:58:06;;;;;;;29.20;26.13;;;1.60;99.90;;;;;;5024385;28;20068;-75
2022/12/04 12:00:42;;;;;;;30.50;25.65;;;1.70;99.90;;;;;;5023891;28;20052;-75
2022/12/04 12:03:26;;;;;;;31.05;27.80;;;1.70;99.90;;;;;;5035330;28;20063;-75
2022/12/04 12:05:59;;;;;;;29.92;26.25;;;1.70;99.90;;;;;;5029602;28;20057;-75
2022/12/04 12:09:05;;;;;;;33.92;29.23;;;1.70;99.90;;;;;;5027017;28;20044;-75
2022/12/04 12:12:01;;;;;;;32.80;29.40;;;1.70;99.90;;;;;;5041888;28;20121;-75
2022/12/04 12:14:44;;;;;;;31.77;28.48;;;1.60;99.90;;;;;;5066648;28;20099;-75
2022/12/04 12:17:28;;;;;;;33.10;29.00;;;1.60;99.90;;;;;;5053145;28;20105;-75
2022/12/04 12:20:15;;;;;;;33.45;27.38;;;1.60;99.90;;;;;;5046699;28;20037;-76
2022/12/04 12:23:01;;;;;;;30.92;28.00;;;1.60;99.90;;;;;;5045606;28;20030;-75
2022/12/04 12:25:36;;;;;;;26.30;22.42;;;1.60;99.90;;;;;;5028380;28;20049;-75
2022/12/04 12:28:17;;;;;;;28.58;23.85;;;1.60;99.90;;;;;;5048751;28;20033;-75
2022/12/04 12:30:49;;;;;;;26.40;23.80;;;1.60;99.90;;;;;;5053933;28;20037;-75
2022/12/04 12:33:20;;;;;;;28.02;25.17;;;1.60;99.90;;;;;;5049554;28;20083;-75
2022/12/04 12:35:51;;;;;;;27.40;24.63;;;1.60;99.90;;;;;;5026403;28;20026;-75
2022/12/04 12:38:23;;;;;;;31.67;26.48;;;1.60;99.90;;;;;;5027710;28;20026;-75
2022/12/04 12:40:55;;;;;;;28.67;25.25;;;1.60;99.90;;;;;;5043348;28;20033;-75
2022/12/04 12:43:33;;;;;;;24.95;22.30;;;1.70;99.90;;;;;;5058575;28;20370;-75
2022/12/04 12:46:15;;;;;;;23.08;20.67;;;1.60;99.90;;;;;;5056653;28;20034;-75
2022/12/04 12:49:13;;;;;;;27.25;24.48;;;1.60;99.90;;;;;;5047808;28;20083;-75
2022/12/04 12:52:05;;;;;;;26.08;23.55;;;1.60;99.90;;;;;;5045672;28;20059;-75
2022/12/04 12:54:56;;;;;;;24.95;20.80;;;1.60;99.90;;;;;;5047221;28;20032;-74
2022/12/04 12:57:32;;;;;;;31.17;27.63;;;1.60;99.90;;;;;;5039788;28;20030;-76
2022/12/04 13:00:06;;;;;;;25.95;22.02;;;1.60;99.90;;;;;;5026062;28;20122;-76
2022/12/04 13:02:35;;;;;;;23.52;21.20;;;1.70;99.90;;;;;;5028172;28;20034;-75
2022/12/04 13:05:06;;;;;;;30.23;25.25;;;1.70;99.90;;;;;;5025794;28;20058;-76
2022/12/04 13:07:41;;;;;;;30.40;24.88;;;1.70;99.90;;;;;;5025888;28;20088;-75
2022/12/04 13:10:15;;;;;;;26.23;23.42;;;1.60;99.90;;;;;;5026052;28;20110;-76
2022/12/04 13:12:53;;;;;;;26.27;23.63;;;1.70;99.90;;;;;;5027169;28;20025;-75